Overview Statistics Trail Chart Weather Telemetry Raw packets
 

This is the latest recevied weather packets stored in our database for station/object ED4YAF-13. If no packets are shown the sender has not sent any weather packets the latest 10 day(s).

<< 27 28 29 30 31 32 33 >>
Time Temp. Humidity Pressure Rain* Wind** Luminosity Snow
1787943395 14.44° C 28% 1018.2 hPa - - - -
1787941809 16.11° C 26% 1017 hPa - - - -
1787940917 16.67° C 24% 1016.2 hPa - - - -
1787940004 17.78° C 23% 1015.6 hPa - - - -
1787939104 17.78° C 23% 1015.7 hPa - - - -
1787938193 18.33° C 22% 1015.3 hPa - - - -
1787937277 18.89° C 21% 1015 hPa - - - -
1787936379 19.44° C 20% 1014.3 hPa - - - -
1787935470 19.44° C 21% 1014.4 hPa - - - -
1787934577 20° C 20% 1013.9 hPa - - - -
1787933670 19.44° C 20% 1014.3 hPa - - - -
1787932777 20° C 20% 1013.9 hPa - - - -
1787931870 20.56° C 21% 1013.7 hPa - - - -
1787930974 20° C 20% 1014 hPa - - - -
1787930066 20.56° C 20% 1013.6 hPa - - - -
1787929173 21.11° C 22% 1013.5 hPa - - - -
1787928266 19.44° C 22% 1014.7 hPa - - - -
1787927367 19.44° C 23% 1014.4 hPa - - - -
1787926452 20° C 23% 1014.2 hPa - - - -
1787925552 20.56° C 23% 1014.1 hPa - - - -
1787924648 18.89° C 23% 1015.2 hPa - - - -
1787923749 18.89° C 25% 1014.9 hPa - - - -
1787922840 18.33° C 26% 1015.7 hPa - - - -
1787921941 18.89° C 25% 1015.3 hPa - - - -
1787920135 17.22° C 27% 1016.7 hPa - - - -

* Rain since midnight (hover to see other rain measurements)
** Current wind speed in m/s (hover to see current wind gust speed)